Terminal Aerodrome Forecast
Issued by NWS

Home | Current Version | Previous Version | Text Only | Print | Product List | Glossary On
Versions: 1 2 3 4 5 6 7 8 9 10 11 12 13 14 15 16 17
000
FTUS43 KMQT 111100
TAFSAW
TAF
KSAW 111139Z 1112/1212 18010KT P6SM SCT050 BKN120
     FM111500 20015G22KT P6SM SCT050 BKN100
     FM111700 20013G20KT P6SM -SHRA OVC060
     FM112000 20013G20KT P6SM BKN100
     FM120100 19010KT P6SM BKN060
     FM120300 20010KT P6SM VCSH BKN050
     FM120700 22005KT P6SM BKN100
      AMD LTD TO CLD VIS AND WIND 1202/1210=

USA.gov is the U.S. government's official web portal to all federal, state and local government web resources and services.